createdAt,value
2018-05-15T00:00:54.936Z,43.70
2018-05-15T00:03:22.546Z,43.50
2018-05-15T00:05:50.947Z,43.60
2018-05-15T00:08:18.567Z,43.70
2018-05-15T00:10:46.951Z,43.90
2018-05-15T00:13:15.324Z,44.00
2018-05-15T00:15:43.747Z,44.10
2018-05-15T00:18:11.356Z,44.00
2018-05-15T00:20:39.740Z,44.20
2018-05-15T00:23:08.159Z,44.30
2018-05-15T00:25:35.796Z,44.30
2018-05-15T00:28:04.225Z,44.50
2018-05-15T00:30:31.842Z,44.50
2018-05-15T00:32:59.476Z,44.50
2018-05-15T00:35:27.051Z,44.50
2018-05-15T00:37:55.426Z,44.70
2018-05-15T00:40:23.804Z,45.10
2018-05-15T00:42:52.186Z,45.00
2018-05-15T00:45:20.558Z,45.00
2018-05-15T00:47:48.920Z,45.10
2018-05-15T00:50:17.316Z,45.30
2018-05-15T00:52:45.742Z,45.70
2018-05-15T00:55:25.172Z,45.60
2018-05-15T00:57:52.813Z,45.80
2018-05-15T01:00:20.501Z,45.80
2018-05-15T01:02:48.082Z,46.00
2018-05-15T01:05:15.709Z,46.20
2018-05-15T01:07:43.382Z,46.20
2018-05-15T01:10:11.043Z,46.60
2018-05-15T01:12:38.624Z,46.70
2018-05-15T01:15:06.240Z,46.80
2018-05-15T01:17:33.855Z,47.10
2018-05-15T01:20:02.104Z,47.50
2018-05-15T01:22:29.686Z,47.70
2018-05-15T01:24:57.372Z,47.90
2018-05-15T01:27:25.762Z,47.50
2018-05-15T01:29:53.341Z,47.50
2018-05-15T01:32:20.951Z,47.70
2018-05-15T01:34:48.568Z,47.80
2018-05-15T01:37:16.188Z,48.20
2018-05-15T01:39:44.597Z,47.70
2018-05-15T01:42:12.241Z,47.60
2018-05-15T01:44:39.853Z,47.40
2018-05-15T01:47:07.457Z,47.60
2018-05-15T01:49:35.091Z,47.50
2018-05-15T01:52:02.702Z,47.50
2018-05-15T01:54:30.294Z,47.50
2018-05-15T01:56:58.184Z,47.60
2018-05-15T01:59:26.545Z,47.90
2018-05-15T02:01:54.158Z,47.90
2018-05-15T02:04:21.801Z,48.00
2018-05-15T02:06:49.464Z,47.90
2018-05-15T02:09:17.059Z,48.10
2018-05-15T02:11:44.651Z,48.10
2018-05-15T02:14:13.812Z,48.30
2018-05-15T02:16:41.425Z,48.30
2018-05-15T02:19:09.811Z,48.30
2018-05-15T02:21:38.225Z,48.20
2018-05-15T02:24:05.850Z,48.30
2018-05-15T02:26:33.449Z,48.30
2018-05-15T02:29:01.323Z,48.40
2018-05-15T02:31:29.521Z,48.20
2018-05-15T02:33:57.190Z,48.30
2018-05-15T02:36:25.803Z,48.90
2018-05-15T02:38:53.446Z,48.50
2018-05-15T02:41:21.812Z,48.80
2018-05-15T02:43:49.417Z,48.70
2018-05-15T02:46:17.039Z,49.10
2018-05-15T02:48:45.466Z,49.20
2018-05-15T02:51:13.131Z,49.20
2018-05-15T02:53:40.713Z,49.60
2018-05-15T02:56:08.315Z,49.50
2018-05-15T02:58:36.720Z,49.90
2018-05-15T03:01:04.374Z,49.90
2018-05-15T03:03:32.041Z,50.10
2018-05-15T03:05:59.966Z,50.40
2018-05-15T03:08:28.316Z,51.10
2018-05-15T03:10:55.930Z,51.00
2018-05-15T03:13:23.542Z,51.40
2018-05-15T03:15:51.153Z,51.90
2018-05-15T03:18:18.851Z,52.30
2018-05-15T03:20:46.495Z,52.70
2018-05-15T03:23:14.159Z,53.20
2018-05-15T03:25:41.765Z,53.60
2018-05-15T03:28:09.370Z,53.70
2018-05-15T03:30:37.002Z,54.10
2018-05-15T03:33:05.380Z,54.20
2018-05-15T03:35:33.791Z,54.60
2018-05-15T03:38:01.383Z,54.60
2018-05-15T03:40:28.983Z,54.70
2018-05-15T03:42:56.578Z,54.60
2018-05-15T03:45:24.156Z,54.50
2018-05-15T03:47:51.760Z,54.70
2018-05-15T03:50:19.369Z,54.90
2018-05-15T03:52:46.971Z,54.90
2018-05-15T03:55:15.318Z,55.80
2018-05-15T03:57:42.927Z,55.20
2018-05-15T04:03:22.410Z,55.60
2018-05-15T04:08:51.550Z,55.70
2018-05-15T04:11:19.163Z,55.80
2018-05-15T04:13:46.813Z,55.80
2018-05-15T04:16:14.436Z,55.80
2018-05-15T04:18:42.049Z,56.50
2018-05-15T04:21:09.676Z,55.90
2018-05-15T04:23:38.065Z,56.10
2018-05-15T04:26:06.409Z,55.90
2018-05-15T04:28:34.043Z,55.90
2018-05-15T04:31:01.632Z,55.90
2018-05-15T04:33:30.754Z,55.90
2018-05-15T04:35:59.106Z,55.80
2018-05-15T04:38:26.689Z,55.70
2018-05-15T04:40:55.104Z,55.80
2018-05-15T04:43:22.766Z,55.70
2018-05-15T04:45:50.364Z,56.00
2018-05-15T04:48:17.947Z,56.10
2018-05-15T04:50:46.367Z,55.80
2018-05-15T04:53:13.963Z,55.80
2018-05-15T04:55:41.623Z,56.00
2018-05-15T04:58:09.247Z,55.90
2018-05-15T05:00:36.841Z,55.80
2018-05-15T05:03:06.009Z,55.80
2018-05-15T05:05:33.593Z,55.90
2018-05-15T05:08:01.208Z,55.80
2018-05-15T05:10:28.789Z,55.60
2018-05-15T05:12:56.431Z,55.60
2018-05-15T05:15:24.023Z,55.70
2018-05-15T05:17:51.625Z,55.60
2018-05-15T05:20:19.979Z,55.20
2018-05-15T05:22:47.580Z,55.20
2018-05-15T05:25:15.176Z,55.00
2018-05-15T05:27:43.890Z,54.90
2018-05-15T05:30:12.293Z,55.20
2018-05-15T05:32:39.881Z,54.50
2018-05-15T05:35:07.517Z,54.30
2018-05-15T05:37:35.209Z,53.90
2018-05-15T05:40:02.870Z,53.30
2018-05-15T05:42:31.201Z,52.60
2018-05-15T05:45:00.324Z,52.50
2018-05-15T05:47:28.814Z,52.40
2018-05-15T05:49:59.259Z,51.90
2018-05-15T05:52:27.990Z,51.60
2018-05-15T05:54:56.372Z,51.30
2018-05-15T05:57:24.712Z,50.90
2018-05-15T05:59:53.165Z,50.90
2018-05-15T06:02:20.883Z,50.90
2018-05-15T06:04:49.367Z,50.10
2018-05-15T06:07:17.986Z,49.50
2018-05-15T06:09:46.537Z,49.50
2018-05-15T06:12:16.039Z,48.50
2018-05-15T06:14:44.274Z,48.50
2018-05-15T06:17:11.967Z,48.40
2018-05-15T06:19:40.471Z,48.40
2018-05-15T06:22:08.176Z,48.70
2018-05-15T06:24:36.635Z,48.80
2018-05-15T06:27:06.666Z,48.60
2018-05-15T06:29:34.569Z,48.50
2018-05-15T06:32:02.989Z,48.40
2018-05-15T06:34:30.590Z,48.40
2018-05-15T06:36:58.200Z,48.00
2018-05-15T06:39:25.780Z,48.30
2018-05-15T06:41:53.408Z,48.40
2018-05-15T06:44:21.502Z,48.30
2018-05-15T06:46:49.121Z,48.60
2018-05-15T06:49:17.499Z,48.30
2018-05-15T06:51:45.844Z,48.30
2018-05-15T06:54:13.461Z,48.30
2018-05-15T06:56:41.069Z,48.00
2018-05-15T06:59:10.236Z,48.20
2018-05-15T07:01:39.350Z,48.50
2018-05-15T07:04:07.594Z,48.50
2018-05-15T07:06:35.260Z,49.30
2018-05-15T07:09:02.865Z,49.70
2018-05-15T07:11:30.522Z,50.20
2018-05-15T07:13:58.140Z,49.80
2018-05-15T07:16:26.419Z,48.60
2018-05-15T07:18:54.164Z,48.20
2018-05-15T07:21:21.821Z,48.10
2018-05-15T07:23:49.406Z,48.00
2018-05-15T07:26:16.984Z,47.40
2018-05-15T07:28:44.599Z,46.70
2018-05-15T07:31:12.187Z,46.30
2018-05-15T07:33:40.552Z,45.50
2018-05-15T07:36:08.413Z,45.20
2018-05-15T07:38:36.247Z,45.70
2018-05-15T07:41:04.607Z,45.00
2018-05-15T07:43:32.340Z,45.00
2018-05-15T07:45:59.940Z,44.40
2018-05-15T07:48:28.301Z,44.20
2018-05-15T07:50:55.982Z,44.10
2018-05-15T07:53:24.327Z,43.30
2018-05-15T07:55:52.085Z,43.30
2018-05-15T07:58:20.012Z,43.40
2018-05-15T08:00:47.606Z,42.80
2018-05-15T08:03:15.264Z,42.40
2018-05-15T08:05:42.884Z,41.90
2018-05-15T08:08:11.661Z,41.30
2018-05-15T08:10:39.265Z,41.30
2018-05-15T08:13:07.039Z,41.00
2018-05-15T08:15:34.723Z,40.50
2018-05-15T08:18:02.364Z,40.40
2018-05-15T08:20:30.120Z,41.00
2018-05-15T08:22:58.611Z,40.70
2018-05-15T08:25:26.940Z,40.20
2018-05-15T08:27:54.584Z,40.20
2018-05-15T08:30:22.989Z,39.80
2018-05-15T08:32:50.874Z,39.80
2018-05-15T08:35:18.552Z,39.00
2018-05-15T08:37:46.458Z,37.30
2018-05-15T08:40:15.197Z,36.30
2018-05-15T08:42:42.850Z,36.20
2018-05-15T08:45:10.445Z,35.90
2018-05-15T08:47:38.056Z,35.90
2018-05-15T08:50:05.667Z,35.80
2018-05-15T08:52:34.217Z,36.00
2018-05-15T08:55:01.955Z,36.00
2018-05-15T08:57:29.562Z,35.20
2018-05-15T08:59:58.915Z,34.60
2018-05-15T09:02:26.806Z,34.90
2018-05-15T09:04:54.643Z,34.00
2018-05-15T09:07:23.307Z,34.00
2018-05-15T09:09:51.750Z,34.60
2018-05-15T09:12:23.692Z,34.60
2018-05-15T09:14:52.163Z,34.90
2018-05-15T09:17:21.478Z,35.00
2018-05-15T09:19:51.125Z,35.70
2018-05-15T09:22:19.875Z,36.00
2018-05-15T09:24:47.504Z,36.00
2018-05-15T09:27:15.116Z,36.10
2018-05-15T09:29:42.791Z,35.90
2018-05-15T09:32:11.114Z,35.60
2018-05-15T09:34:39.153Z,35.10
2018-05-15T09:37:07.490Z,34.50
2018-05-15T09:39:35.230Z,33.70
2018-05-15T09:42:03.621Z,34.00
2018-05-15T09:44:31.232Z,34.30
2018-05-15T09:47:00.371Z,33.90
2018-05-15T09:49:28.413Z,33.80
2018-05-15T09:51:56.089Z,33.80
2018-05-15T09:54:24.925Z,33.70
2018-05-15T09:56:52.593Z,34.00
2018-05-15T09:59:21.349Z,33.60
2018-05-15T10:01:48.957Z,34.00
2018-05-15T10:04:17.362Z,34.00
2018-05-15T10:06:46.175Z,33.90
2018-05-15T10:09:13.972Z,33.50
2018-05-15T10:11:41.653Z,33.30
2018-05-15T10:14:10.244Z,32.20
2018-05-15T10:16:37.695Z,32.20
2018-05-15T10:19:06.305Z,31.90
2018-05-15T10:21:34.185Z,31.90
2018-05-15T10:24:01.760Z,31.50
2018-05-15T10:26:30.007Z,31.40
2018-05-15T10:28:57.604Z,31.20
2018-05-15T10:31:25.201Z,31.40
2018-05-15T10:33:53.617Z,31.10
2018-05-15T10:36:21.271Z,31.10
2018-05-15T10:38:48.920Z,31.40
2018-05-15T10:41:16.506Z,31.80
2018-05-15T10:43:44.177Z,31.50
2018-05-15T10:46:11.818Z,31.30
2018-05-15T10:48:39.646Z,31.00
2018-05-15T10:51:07.276Z,31.10
2018-05-15T10:53:34.920Z,31.10
2018-05-15T10:56:02.500Z,31.10
2018-05-15T10:58:30.124Z,31.30
2018-05-15T11:00:57.764Z,31.10
2018-05-15T11:03:25.372Z,31.40
2018-05-15T11:05:52.992Z,31.70
2018-05-15T11:08:21.226Z,31.80
2018-05-15T11:10:48.961Z,31.80
2018-05-15T11:13:17.018Z,31.60
2018-05-15T11:15:44.625Z,31.60
2018-05-15T11:18:26.885Z,31.90
2018-05-15T11:24:19.178Z,31.60
2018-05-15T11:26:47.590Z,31.90
2018-05-15T11:29:21.767Z,31.80
2018-05-15T11:31:50.163Z,31.90
2018-05-15T11:34:18.512Z,31.60
2018-05-15T11:36:46.567Z,31.50
2018-05-15T11:39:14.176Z,31.50
2018-05-15T11:41:42.555Z,30.50
2018-05-15T11:44:10.214Z,30.50
2018-05-15T11:46:38.618Z,30.80
2018-05-15T11:49:07.147Z,31.40
2018-05-15T11:51:34.529Z,31.30
2018-05-15T11:54:01.667Z,31.70
2018-05-15T11:56:29.340Z,32.40
2018-05-15T11:58:57.190Z,32.30
2018-05-15T12:01:25.559Z,31.90
2018-05-15T12:03:53.236Z,31.90
2018-05-15T12:06:21.641Z,31.10
2018-05-15T12:08:49.301Z,31.10
2018-05-15T12:11:16.926Z,31.30
2018-05-15T12:13:45.369Z,31.30
2018-05-15T12:16:13.055Z,31.30
2018-05-15T12:18:41.406Z,30.80
2018-05-15T12:21:09.037Z,30.80
2018-05-15T12:23:36.674Z,30.10
2018-05-15T12:26:05.657Z,30.80
2018-05-15T12:28:34.381Z,31.50
2018-05-15T12:31:02.061Z,30.90
2018-05-15T12:33:29.700Z,30.90
2018-05-15T12:35:57.320Z,30.50
2018-05-15T12:38:24.969Z,30.30
2018-05-15T12:40:52.682Z,30.10
2018-05-15T12:43:20.343Z,30.00
2018-05-15T12:45:48.010Z,29.70
2018-05-15T12:48:18.235Z,29.70
2018-05-15T12:50:46.728Z,29.50
2018-05-15T12:53:14.312Z,29.40
2018-05-15T12:55:41.943Z,29.70
2018-05-15T12:58:09.536Z,29.80
2018-05-15T13:00:37.206Z,30.50
2018-05-15T13:03:05.625Z,31.60
2018-05-15T13:05:33.281Z,31.00
2018-05-15T13:08:00.862Z,30.60
2018-05-15T13:10:28.479Z,30.70
2018-05-15T13:12:56.913Z,31.30
2018-05-15T13:15:24.511Z,31.30
2018-05-15T13:17:52.899Z,31.80
2018-05-15T13:20:21.240Z,31.40
2018-05-15T13:22:48.881Z,31.30
2018-05-15T13:25:16.557Z,31.60
2018-05-15T13:27:44.180Z,32.00
2018-05-15T13:30:11.850Z,32.30
2018-05-15T13:32:40.463Z,32.60
2018-05-15T13:35:08.999Z,33.50
2018-05-15T13:37:36.608Z,33.50
2018-05-15T13:40:04.312Z,34.00
2018-05-15T13:42:33.190Z,35.10
2018-05-15T13:45:01.609Z,35.60
2018-05-15T13:47:29.230Z,35.50
2018-05-15T13:49:57.628Z,35.90
2018-05-15T13:52:25.426Z,35.90
2018-05-15T13:54:53.048Z,36.20
2018-05-15T13:57:22.258Z,36.40
2018-05-15T13:59:49.893Z,36.40
2018-05-15T14:02:18.251Z,37.10
2018-05-15T14:04:46.652Z,37.30
2018-05-15T14:07:15.071Z,37.60
2018-05-15T14:09:42.727Z,37.50
2018-05-15T14:12:10.333Z,37.90
2018-05-15T14:14:37.982Z,38.30
2018-05-15T14:17:05.619Z,39.00
2018-05-15T14:19:33.243Z,39.60
2018-05-15T14:22:01.750Z,40.10
2018-05-15T14:24:29.418Z,40.90
2018-05-15T14:26:57.044Z,42.30
2018-05-15T14:29:25.426Z,42.80
2018-05-15T14:31:53.782Z,44.00
2018-05-15T14:34:21.436Z,44.00
2018-05-15T14:36:49.829Z,46.30
2018-05-15T14:39:18.376Z,48.30
2018-05-15T14:41:58.238Z,48.30
2018-05-15T14:44:25.885Z,52.20
2018-05-15T14:46:53.455Z,54.00
2018-05-15T14:49:21.165Z,57.50
2018-05-15T14:51:48.747Z,64.30
2018-05-15T14:54:17.347Z,77.00
2018-05-15T14:56:44.990Z,77.00
2018-05-15T14:59:12.689Z,89.40
2018-05-15T15:01:40.348Z,90.30
2018-05-15T15:04:08.017Z,90.90
2018-05-15T15:06:35.667Z,91.50
2018-05-15T15:09:03.513Z,93.70
2018-05-15T15:11:31.221Z,94.10
2018-05-15T15:13:59.638Z,93.40
2018-05-15T15:16:27.302Z,93.40
2018-05-15T15:18:55.098Z,93.20
2018-05-15T15:21:22.733Z,92.80
2018-05-15T15:23:50.384Z,93.00
2018-05-15T15:26:17.982Z,93.40
2018-05-15T15:28:45.630Z,93.90
2018-05-15T15:31:13.254Z,93.80
2018-05-15T15:33:40.824Z,94.20
2018-05-15T15:36:08.444Z,94.10
2018-05-15T15:38:37.432Z,94.40
2018-05-15T15:41:05.863Z,94.70
2018-05-15T15:43:33.481Z,94.60
2018-05-15T15:46:01.907Z,94.80
2018-05-15T15:48:29.562Z,94.80
2018-05-15T15:50:57.789Z,95.20
2018-05-15T15:53:25.451Z,95.60
2018-05-15T15:55:53.232Z,95.90
2018-05-15T15:58:21.584Z,95.00
2018-05-15T16:00:50.119Z,94.40
2018-05-15T16:03:17.793Z,94.40
2018-05-15T16:05:45.405Z,93.50
2018-05-15T16:08:13.018Z,93.80
2018-05-15T16:10:40.672Z,93.40
2018-05-15T16:13:08.324Z,95.20
2018-05-15T16:15:36.079Z,94.70
2018-05-15T16:18:04.465Z,94.90
2018-05-15T16:20:32.107Z,94.90
2018-05-15T16:22:59.733Z,94.00
2018-05-15T16:25:28.153Z,92.80
2018-05-15T16:27:55.772Z,92.80
2018-05-15T16:30:24.974Z,93.30
2018-05-15T16:32:53.425Z,92.90
2018-05-15T16:35:21.243Z,92.90
2018-05-15T16:37:48.861Z,92.10
2018-05-15T16:40:16.535Z,92.80
2018-05-15T16:42:44.965Z,92.70
2018-05-15T16:45:12.633Z,92.70
2018-05-15T16:47:40.440Z,92.80
2018-05-15T16:50:08.837Z,93.30
2018-05-15T16:52:36.573Z,93.10
2018-05-15T16:55:04.252Z,93.10
2018-05-15T16:57:32.859Z,93.60
2018-05-15T17:00:00.748Z,93.40
2018-05-15T17:02:28.373Z,93.40
2018-05-15T17:04:55.995Z,93.40
2018-05-15T17:07:23.728Z,93.20
2018-05-15T17:09:51.369Z,93.60
2018-05-15T17:12:18.996Z,94.40
2018-05-15T17:14:47.417Z,96.60
2018-05-15T17:17:15.084Z,96.60
2018-05-15T17:19:42.764Z,97.70
2018-05-15T17:22:11.132Z,98.20
2018-05-15T17:24:38.861Z,97.80
2018-05-15T17:27:06.504Z,98.60
2018-05-15T17:29:35.349Z,98.10
2018-05-15T17:32:03.717Z,98.10
2018-05-15T17:34:31.327Z,96.80
2018-05-15T17:37:00.462Z,97.00
2018-05-15T17:39:28.151Z,97.00
2018-05-15T17:41:55.778Z,97.40
2018-05-15T17:44:23.463Z,96.90
2018-05-15T17:46:51.961Z,97.30
2018-05-15T17:49:19.651Z,96.70
2018-05-15T17:51:48.084Z,97.60
2018-05-15T17:54:15.749Z,97.50
2018-05-15T17:56:43.388Z,97.10
2018-05-15T17:59:11.339Z,96.80
2018-05-15T18:01:39.819Z,96.60
2018-05-15T18:04:07.465Z,96.60
2018-05-15T18:06:35.963Z,96.30
2018-05-15T18:09:03.777Z,96.30
2018-05-15T18:11:31.388Z,95.60
2018-05-15T18:13:58.972Z,95.90
2018-05-15T18:16:26.617Z,96.40
2018-05-15T18:18:54.240Z,96.40
2018-05-15T18:21:22.681Z,96.60
2018-05-15T18:23:51.130Z,96.50
2018-05-15T18:26:18.771Z,96.50
2018-05-15T18:28:47.194Z,96.30
2018-05-15T18:31:14.793Z,96.30
2018-05-15T18:33:42.447Z,96.50
2018-05-15T18:36:10.032Z,96.40
2018-05-15T18:38:38.401Z,96.80
2018-05-15T18:41:06.943Z,97.10
2018-05-15T18:43:34.753Z,97.10
2018-05-15T18:46:08.342Z,97.00
2018-05-15T18:48:36.244Z,97.10
2018-05-15T18:51:04.157Z,96.70
2018-05-15T18:53:31.876Z,96.70
2018-05-15T18:55:59.977Z,97.20
2018-05-15T18:58:28.048Z,97.00
2018-05-15T19:00:56.103Z,96.60
2018-05-15T19:03:24.469Z,96.90
2018-05-15T19:05:52.091Z,97.10
2018-05-15T19:08:20.830Z,97.20
2018-05-15T19:10:48.599Z,97.20
2018-05-15T19:13:16.386Z,97.10
2018-05-15T19:15:44.412Z,97.30
2018-05-15T19:18:12.488Z,97.30
2018-05-15T19:20:40.784Z,97.40
2018-05-15T19:23:09.927Z,97.50
2018-05-15T19:25:37.587Z,97.30
2018-05-15T19:28:06.150Z,97.90
2018-05-15T19:30:33.889Z,97.80
2018-05-15T19:33:04.502Z,97.90
2018-05-15T19:35:38.547Z,97.90
2018-05-15T19:38:07.154Z,98.20
2018-05-15T19:40:42.035Z,98.00
2018-05-15T19:43:09.803Z,98.00
2018-05-15T19:45:39.196Z,97.90
2018-05-15T19:48:07.522Z,97.90
2018-05-15T19:50:37.191Z,98.00
2018-05-15T19:53:04.967Z,98.00
2018-05-15T19:55:32.672Z,98.20
2018-05-15T19:58:00.317Z,98.10
2018-05-15T20:00:28.686Z,98.00
2018-05-15T20:02:56.641Z,98.00
2018-05-15T20:05:24.875Z,98.10
2018-05-15T20:07:52.870Z,98.10
2018-05-15T20:10:20.952Z,98.10
2018-05-15T20:12:48.979Z,98.10
2018-05-15T20:15:16.714Z,98.20
2018-05-15T20:17:45.147Z,98.20
2018-05-15T20:20:15.463Z,98.20
2018-05-15T20:22:43.139Z,98.20
2018-05-15T20:25:11.619Z,98.20
2018-05-15T20:27:39.237Z,98.30
2018-05-15T20:30:06.894Z,98.30
2018-05-15T20:32:34.602Z,98.40
2018-05-15T20:35:02.366Z,98.40
2018-05-15T20:37:30.672Z,98.20
2018-05-15T20:39:59.105Z,98.20
2018-05-15T20:42:26.701Z,98.20
2018-05-15T20:44:54.283Z,98.20
2018-05-15T20:47:22.687Z,98.10
2018-05-15T20:49:50.292Z,98.10
2018-05-15T20:52:18.038Z,98.20
2018-05-15T20:54:46.468Z,98.10
2018-05-15T20:57:14.169Z,98.10
2018-05-15T20:59:41.801Z,98.10
2018-05-15T21:02:09.438Z,98.10
2018-05-15T21:04:37.831Z,98.10
2018-05-15T21:07:06.187Z,98.10
2018-05-15T21:09:33.962Z,98.10
2018-05-15T21:12:02.360Z,98.10
2018-05-15T21:14:30.018Z,98.10
2018-05-15T21:16:57.660Z,98.10
2018-05-15T21:19:25.367Z,98.20
2018-05-15T21:21:52.974Z,98.20
2018-05-15T21:24:20.664Z,98.20
2018-05-15T21:26:48.332Z,98.20
2018-05-15T21:29:15.971Z,98.20
2018-05-15T21:31:44.335Z,98.20
2018-05-15T21:34:12.751Z,98.20
2018-05-15T21:36:40.449Z,98.10
2018-05-15T21:39:08.054Z,98.10
2018-05-15T21:41:36.522Z,98.00
2018-05-15T21:44:04.899Z,98.10
2018-05-15T21:46:33.863Z,98.00
2018-05-15T21:49:01.472Z,98.00
2018-05-15T21:51:29.173Z,97.90
2018-05-15T21:53:56.834Z,97.90
2018-05-15T21:56:24.996Z,97.80
2018-05-15T21:58:52.653Z,97.80
2018-05-15T22:01:20.239Z,97.80
2018-05-15T22:03:47.947Z,97.70
2018-05-15T22:06:15.505Z,97.70
2018-05-15T22:08:43.168Z,97.70
2018-05-15T22:11:14.224Z,97.70
2018-05-15T22:13:53.783Z,97.70
2018-05-15T22:16:33.488Z,97.80
2018-05-15T22:19:14.098Z,97.80
2018-05-15T22:21:53.555Z,97.80
2018-05-15T22:24:25.945Z,97.80
2018-05-15T22:26:54.348Z,97.90
2018-05-15T22:29:21.939Z,97.90
2018-05-15T22:31:49.591Z,97.80
2018-05-15T22:34:17.188Z,97.80
2018-05-15T22:36:44.982Z,97.90
2018-05-15T22:39:14.064Z,97.90
2018-05-15T22:41:42.568Z,98.00
2018-05-15T22:44:11.043Z,98.00
2018-05-15T22:46:38.623Z,98.00
2018-05-15T22:49:06.289Z,98.00
2018-05-15T22:51:33.890Z,98.00
2018-05-15T22:54:01.542Z,98.00
2018-05-15T22:56:30.641Z,98.10
2018-05-15T22:58:59.240Z,98.10
2018-05-15T23:01:27.652Z,98.10
2018-05-15T23:03:55.532Z,98.10
2018-05-15T23:06:23.228Z,98.20
2018-05-15T23:08:50.813Z,98.20
2018-05-15T23:11:19.192Z,98.20
2018-05-15T23:13:47.611Z,98.10
2018-05-15T23:16:15.234Z,98.10
2018-05-15T23:18:43.609Z,98.20
2018-05-15T23:21:11.997Z,98.20
2018-05-15T23:23:40.377Z,98.10
2018-05-15T23:26:08.007Z,98.10
2018-05-15T23:28:36.397Z,98.00
2018-05-15T23:31:04.783Z,98.00
2018-05-15T23:33:33.186Z,98.00
2018-05-15T23:36:00.862Z,98.00
2018-05-15T23:38:29.950Z,98.20
2018-05-15T23:40:58.981Z,97.90
2018-05-15T23:43:28.150Z,97.90
2018-05-15T23:45:55.749Z,97.90
2018-05-15T23:48:23.329Z,97.80
2018-05-15T23:50:51.749Z,97.70
2018-05-15T23:53:19.463Z,97.70
2018-05-15T23:55:47.816Z,97.70
2018-05-15T23:58:15.425Z,97.70
